createdAt,value
2017-04-23T00:00:33.656Z,6.55
2017-04-23T00:01:42.598Z,6.49
2017-04-23T00:02:51.544Z,6.46
2017-04-23T00:04:00.484Z,6.54
2017-04-23T00:05:09.522Z,6.58
2017-04-23T00:06:18.765Z,6.52
2017-04-23T00:07:27.726Z,6.55
2017-04-23T00:08:36.670Z,6.49
2017-04-23T00:09:45.617Z,6.52
2017-04-23T00:10:54.567Z,6.58
2017-04-23T00:12:03.810Z,6.64
2017-04-23T00:13:12.756Z,6.67
2017-04-23T00:14:21.788Z,6.62
2017-04-23T00:15:30.733Z,6.64
2017-04-23T00:16:40.002Z,6.58
2017-04-23T00:17:49.257Z,6.66
2017-04-23T00:18:58.208Z,6.64
2017-04-23T00:20:07.162Z,6.62
2017-04-23T00:21:16.202Z,6.59
2017-04-23T00:22:25.147Z,6.67
2017-04-23T00:23:34.391Z,6.62
2017-04-23T00:24:43.339Z,6.62
2017-04-23T00:25:52.287Z,6.62
2017-04-23T00:27:01.231Z,6.67
2017-04-23T00:28:10.186Z,6.58
2017-04-23T00:29:19.430Z,6.55
2017-04-23T00:30:29.024Z,6.56
2017-04-23T00:31:37.965Z,6.51
2017-04-23T00:32:47.007Z,6.52
2017-04-23T00:33:55.964Z,6.48
2017-04-23T00:35:05.157Z,6.48
2017-04-23T00:36:14.118Z,6.61
2017-04-23T00:37:23.154Z,6.52
2017-04-23T00:38:32.095Z,6.51
2017-04-23T00:39:41.041Z,6.56
2017-04-23T00:40:50.231Z,6.58
2017-04-23T00:41:59.177Z,6.55
2017-04-23T00:43:08.124Z,6.56
2017-04-23T00:44:17.072Z,6.56
2017-04-23T00:45:26.022Z,6.59
2017-04-23T00:46:35.215Z,6.61
2017-04-23T00:47:44.164Z,6.64
2017-04-23T00:48:53.110Z,6.61
2017-04-23T00:50:02.060Z,6.64
2017-04-23T00:51:11.331Z,6.66
2017-04-23T00:52:20.581Z,6.62
2017-04-23T00:53:29.524Z,6.69
2017-04-23T00:54:38.471Z,6.66
2017-04-23T00:55:47.415Z,6.67
2017-04-23T00:56:56.361Z,6.73
2017-04-23T00:58:05.694Z,6.73
2017-04-23T00:59:14.642Z,6.66
2017-04-23T01:00:23.589Z,6.77
2017-04-23T01:01:32.533Z,6.76
2017-04-23T01:02:41.814Z,6.87
2017-04-23T01:03:51.014Z,6.81
2017-04-23T01:04:59.959Z,6.81
2017-04-23T01:06:08.905Z,6.76
2017-04-23T01:07:17.854Z,6.79
2017-04-23T01:08:27.130Z,6.85
2017-04-23T01:09:36.661Z,6.85
2017-04-23T01:10:45.607Z,6.87
2017-04-23T01:11:54.556Z,6.89
2017-04-23T01:13:03.504Z,6.91
2017-04-23T01:14:12.462Z,6.92
2017-04-23T01:15:21.665Z,6.95
2017-04-23T01:16:30.699Z,6.94
2017-04-23T01:17:39.643Z,6.94
2017-04-23T01:18:48.682Z,6.92
2017-04-23T01:19:57.717Z,6.88
2017-04-23T01:21:06.970Z,6.84
2017-04-23T01:22:15.912Z,6.8
2017-04-23T01:23:24.859Z,6.91
2017-04-23T01:24:34.130Z,6.91
2017-04-23T01:25:43.080Z,6.92
2017-04-23T01:26:52.275Z,6.88
2017-04-23T01:28:01.220Z,6.89
2017-04-23T01:29:10.168Z,6.95
2017-04-23T01:30:19.111Z,7.02
2017-04-23T01:31:28.144Z,6.91
2017-04-23T01:32:37.343Z,6.89
2017-04-23T01:33:46.295Z,6.85
2017-04-23T01:34:55.251Z,6.84
2017-04-23T01:36:04.198Z,6.79
2017-04-23T01:37:13.145Z,6.84
2017-04-23T01:38:22.340Z,6.88
2017-04-23T01:39:31.284Z,6.71
2017-04-23T01:40:40.226Z,6.73
2017-04-23T01:41:49.259Z,6.8
2017-04-23T01:42:58.291Z,6.66
2017-04-23T01:44:07.581Z,6.7
2017-04-23T01:45:16.527Z,6.67
2017-04-23T01:46:25.470Z,6.67
2017-04-23T01:47:34.418Z,6.64
2017-04-23T01:48:43.370Z,6.66
2017-04-23T01:49:52.592Z,6.56
2017-04-23T01:51:01.541Z,6.56
2017-04-23T01:52:10.577Z,6.56
2017-04-23T01:53:19.524Z,6.59
2017-04-23T01:54:28.473Z,6.59
2017-04-23T01:55:37.668Z,6.64
2017-04-23T01:56:46.939Z,6.66
2017-04-23T01:57:55.883Z,6.59
2017-04-23T01:59:04.834Z,6.64
2017-04-23T02:00:13.949Z,6.56
2017-04-23T02:01:23.284Z,6.61
2017-04-23T02:02:32.556Z,6.64
2017-04-23T02:03:41.509Z,6.71
2017-04-23T02:04:50.453Z,6.67
2017-04-23T02:05:59.436Z,6.67
2017-04-23T02:07:08.685Z,6.59
2017-04-23T02:08:17.642Z,6.61
2017-04-23T02:09:26.590Z,6.69
2017-04-23T02:10:35.533Z,6.61
2017-04-23T02:11:44.477Z,6.59
2017-04-23T02:12:53.730Z,6.54
2017-04-23T02:14:02.773Z,6.61
2017-04-23T02:15:12.045Z,6.51
2017-04-23T02:16:20.984Z,6.64
2017-04-23T02:17:30.017Z,6.62
2017-04-23T02:18:39.600Z,6.59
2017-04-23T02:19:48.554Z,6.58
2017-04-23T02:20:57.498Z,6.7
2017-04-23T02:22:06.443Z,6.56
2017-04-23T02:23:15.394Z,6.62
2017-04-23T02:24:24.596Z,6.62
2017-04-23T02:25:33.542Z,6.71
2017-04-23T02:26:42.488Z,6.64
2017-04-23T02:27:51.439Z,6.69
2017-04-23T02:29:00.390Z,6.7
2017-04-23T02:30:09.588Z,6.61
2017-04-23T02:31:18.536Z,6.69
2017-04-23T02:32:27.484Z,6.66
2017-04-23T02:33:36.433Z,6.64
2017-04-23T02:34:45.385Z,6.66
2017-04-23T02:35:54.669Z,6.66
2017-04-23T02:37:03.615Z,6.74
2017-04-23T02:38:12.568Z,6.73
2017-04-23T02:39:21.520Z,6.73
2017-04-23T02:40:30.794Z,6.8
2017-04-23T02:41:39.988Z,6.7
2017-04-23T02:42:48.957Z,6.84
2017-04-23T02:43:57.997Z,6.87
2017-04-23T02:45:06.939Z,6.74
2017-04-23T02:46:15.885Z,6.87
2017-04-23T02:47:25.082Z,6.87
2017-04-23T02:48:34.031Z,6.87
2017-04-23T02:49:43.313Z,6.84
2017-04-23T02:50:52.347Z,6.84
2017-04-23T02:52:01.297Z,6.89
2017-04-23T02:53:10.488Z,6.91
2017-04-23T02:54:19.433Z,6.87
2017-04-23T02:55:28.387Z,6.85
2017-04-23T02:56:37.339Z,6.85
2017-04-23T02:57:46.292Z,6.85
2017-04-23T02:58:55.494Z,6.94
2017-04-23T03:00:04.445Z,6.89
2017-04-23T03:01:13.709Z,6.89
2017-04-23T03:02:22.654Z,6.95
2017-04-23T03:03:31.606Z,6.95
2017-04-23T03:04:40.893Z,6.89
2017-04-23T03:05:49.848Z,6.95
2017-04-23T03:06:58.794Z,6.94
2017-04-23T03:08:07.742Z,6.97
2017-04-23T03:09:16.691Z,6.98
2017-04-23T03:10:25.888Z,6.95
2017-04-23T03:11:34.941Z,6.89
2017-04-23T03:12:44.224Z,6.91
2017-04-23T03:13:53.173Z,6.95
2017-04-23T03:15:02.121Z,7.03
2017-04-23T03:16:11.313Z,6.88
2017-04-23T03:17:20.267Z,7.02
2017-04-23T03:18:29.312Z,6.94
2017-04-23T03:19:38.348Z,6.97
2017-04-23T03:20:47.302Z,6.94
2017-04-23T03:21:56.508Z,6.95
2017-04-23T03:23:05.453Z,6.98
2017-04-23T03:24:14.397Z,6.95
2017-04-23T03:25:23.352Z,6.97
2017-04-23T03:26:32.383Z,6.95
2017-04-23T03:27:41.579Z,7.03
2017-04-23T03:28:50.525Z,6.98
2017-04-23T03:29:59.474Z,6.99
2017-04-23T03:31:08.429Z,7.02
2017-04-23T03:32:17.371Z,7.03
2017-04-23T03:33:26.571Z,7.06
2017-04-23T03:34:35.523Z,7.06
2017-04-23T03:35:44.472Z,7.13
2017-04-23T03:36:53.419Z,7.07
2017-04-23T03:38:02.365Z,7.09
2017-04-23T03:39:11.560Z,7.17
2017-04-23T03:40:20.514Z,7.15
2017-04-23T03:41:29.461Z,7.16
2017-04-23T03:42:38.496Z,7.17
2017-04-23T03:43:47.538Z,7.15
2017-04-23T03:44:56.819Z,7.16
2017-04-23T03:46:05.765Z,7.16
2017-04-23T03:47:14.712Z,7.27
2017-04-23T03:48:23.659Z,7.27
2017-04-23T03:49:32.612Z,7.31
2017-04-23T03:50:42.244Z,7.21
2017-04-23T03:51:51.188Z,7.27
2017-04-23T03:53:00.138Z,7.23
2017-04-23T03:54:09.093Z,7.21
2017-04-23T03:55:18.048Z,7.12
2017-04-23T03:56:27.294Z,7.17
2017-04-23T03:57:36.333Z,7.3
2017-04-23T03:58:45.287Z,7.16
2017-04-23T03:59:54.235Z,7.2
2017-04-23T04:01:03.184Z,7.17
2017-04-23T04:02:12.466Z,7.13
2017-04-23T04:03:21.499Z,7.16
2017-04-23T04:04:30.451Z,7.15
2017-04-23T04:05:39.397Z,7.1
2017-04-23T04:06:48.349Z,7.13
2017-04-23T04:07:57.916Z,7.16
2017-04-23T04:09:06.858Z,7.16
2017-04-23T04:10:15.805Z,7.21
2017-04-23T04:11:24.755Z,7.21
2017-04-23T04:12:33.711Z,7.23
2017-04-23T04:13:42.919Z,7.28
2017-04-23T04:14:51.868Z,7.25
2017-04-23T04:16:00.830Z,7.17
2017-04-23T04:17:09.779Z,7.21
2017-04-23T04:18:18.728Z,7.23
2017-04-23T04:19:28.250Z,7.27
2017-04-23T04:20:37.204Z,7.31
2017-04-23T04:21:46.466Z,7.27
2017-04-23T04:22:55.733Z,7.28
2017-04-23T04:24:04.682Z,7.3
2017-04-23T04:25:13.926Z,7.34
2017-04-23T04:26:23.196Z,7.32
2017-04-23T04:27:32.469Z,7.42
2017-04-23T04:28:41.749Z,7.34
2017-04-23T04:29:50.707Z,7.28
2017-04-23T04:30:59.997Z,7.35
2017-04-23T04:32:09.036Z,7.4
2017-04-23T04:33:17.984Z,7.31
2017-04-23T04:34:26.931Z,7.34
2017-04-23T04:35:35.879Z,7.35
2017-04-23T04:36:45.078Z,7.42
2017-04-23T04:37:54.026Z,7.25
2017-04-23T04:39:02.970Z,7.4
2017-04-23T04:40:11.922Z,7.37
2017-04-23T04:41:20.868Z,7.39
2017-04-23T04:42:30.136Z,7.4
2017-04-23T04:43:39.080Z,7.31
2017-04-23T04:44:48.110Z,7.34
2017-04-23T04:45:57.149Z,7.3
2017-04-23T04:47:06.135Z,7.32
2017-04-23T04:48:15.329Z,7.31
2017-04-23T04:49:24.272Z,7.39
2017-04-23T04:50:33.217Z,7.37
2017-04-23T04:51:42.172Z,7.35
2017-04-23T04:52:51.117Z,7.48
2017-04-23T04:54:00.309Z,7.45
2017-04-23T04:55:09.253Z,7.52
2017-04-23T04:56:18.197Z,7.45
2017-04-23T04:57:27.142Z,7.45
2017-04-23T04:58:36.177Z,7.5
2017-04-23T04:59:45.516Z,7.49
2017-04-23T05:00:54.549Z,7.6
2017-04-23T05:02:03.581Z,7.53
2017-04-23T05:03:12.629Z,7.57
2017-04-23T05:04:21.579Z,7.53
2017-04-23T05:05:30.778Z,7.61
2017-04-23T05:06:39.721Z,7.55
2017-04-23T05:07:48.670Z,7.55
2017-04-23T05:08:57.614Z,7.64
2017-04-23T05:10:06.562Z,7.67
2017-04-23T05:11:15.756Z,7.57
2017-04-23T05:12:24.707Z,7.68
2017-04-23T05:13:33.654Z,7.6
2017-04-23T05:14:42.616Z,7.64
2017-04-23T05:15:51.572Z,7.67
2017-04-23T05:17:00.821Z,7.58
2017-04-23T05:18:09.859Z,7.61
2017-04-23T05:19:18.898Z,7.6
2017-04-23T05:20:27.860Z,7.6
2017-04-23T05:21:36.810Z,7.58
2017-04-23T05:22:46.028Z,7.61
2017-04-23T05:23:54.979Z,7.71
2017-04-23T05:25:03.938Z,7.72
2017-04-23T05:26:12.889Z,7.72
2017-04-23T05:27:21.845Z,7.71
2017-04-23T05:28:31.091Z,7.79
2017-04-23T05:29:40.048Z,7.74
2017-04-23T05:30:49.002Z,7.83
2017-04-23T05:31:57.952Z,7.75
2017-04-23T05:33:06.984Z,7.8
2017-04-23T05:34:16.187Z,7.83
2017-04-23T05:35:25.222Z,7.86
2017-04-23T05:36:34.165Z,7.85
2017-04-23T05:37:43.441Z,7.89
2017-04-23T05:38:52.391Z,7.86
2017-04-23T05:40:01.591Z,7.92
2017-04-23T05:41:10.541Z,7.95
2017-04-23T05:42:19.489Z,7.85
2017-04-23T05:43:28.442Z,7.97
2017-04-23T05:44:37.479Z,7.89
2017-04-23T05:45:46.677Z,7.9
2017-04-23T05:46:55.806Z,7.98
2017-04-23T05:48:04.752Z,7.95
2017-04-23T05:49:13.797Z,7.97
2017-04-23T05:50:22.764Z,7.92
2017-04-23T05:51:31.963Z,8
2017-04-23T05:52:40.912Z,8.02
2017-04-23T05:53:49.853Z,8.01
2017-04-23T05:54:58.807Z,8.1
2017-04-23T05:56:07.753Z,8.07
2017-04-23T05:57:16.951Z,8.04
2017-04-23T05:58:26.000Z,8.01
2017-04-23T05:59:35.278Z,7.92
2017-04-23T06:00:44.230Z,8.01
2017-04-23T06:01:53.180Z,7.95
2017-04-23T06:03:02.424Z,7.89
2017-04-23T06:04:11.370Z,7.82
2017-04-23T06:05:20.318Z,7.8
2017-04-23T06:06:29.265Z,7.69
2017-04-23T06:07:38.212Z,7.68
2017-04-23T06:08:47.566Z,7.67
2017-04-23T06:09:56.606Z,7.71
2017-04-23T06:11:05.553Z,7.69
2017-04-23T06:12:14.501Z,7.63
2017-04-23T06:13:23.775Z,7.58
2017-04-23T06:14:32.973Z,7.53
2017-04-23T06:15:42.010Z,7.57
2017-04-23T06:16:50.958Z,7.53
2017-04-23T06:17:59.911Z,7.6
2017-04-23T06:19:08.857Z,7.53
2017-04-23T06:20:18.060Z,7.61
2017-04-23T06:21:27.092Z,7.72
2017-04-23T06:22:36.362Z,7.72
2017-04-23T06:23:45.393Z,7.74
2017-04-23T06:24:54.752Z,7.69
2017-04-23T06:26:04.000Z,7.69
2017-04-23T06:27:13.270Z,7.69
2017-04-23T06:28:22.311Z,7.77
2017-04-23T06:29:31.353Z,7.8
2017-04-23T06:30:40.301Z,7.72
2017-04-23T06:31:49.550Z,7.67
2017-04-23T06:32:58.494Z,7.72
2017-04-23T06:34:07.438Z,7.72
2017-04-23T06:35:16.391Z,7.68
2017-04-23T06:36:25.341Z,7.74
2017-04-23T06:37:34.668Z,7.8
2017-04-23T06:38:43.629Z,7.9
2017-04-23T06:39:52.576Z,7.95
2017-04-23T06:41:01.845Z,7.87
2017-04-23T06:42:10.789Z,7.86
2017-04-23T06:43:19.985Z,7.97
2017-04-23T06:44:29.021Z,7.97
2017-04-23T06:45:38.055Z,7.9
2017-04-23T06:46:47.005Z,7.95
2017-04-23T06:47:55.958Z,7.93
2017-04-23T06:49:05.201Z,7.97
2017-04-23T06:50:14.151Z,7.86
2017-04-23T06:51:23.098Z,7.93
2017-04-23T06:52:32.041Z,7.97
2017-04-23T06:53:41.077Z,7.85
2017-04-23T06:54:50.281Z,7.87
2017-04-23T06:55:59.229Z,7.77
2017-04-23T06:57:08.172Z,7.75
2017-04-23T06:58:17.123Z,7.67
2017-04-23T06:59:26.094Z,7.55
2017-04-23T07:00:35.294Z,7.53
2017-04-23T07:01:44.560Z,7.6
2017-04-23T07:02:53.508Z,7.53
2017-04-23T07:04:02.468Z,7.55
2017-04-23T07:05:11.592Z,7.5
2017-04-23T07:06:20.792Z,7.49
2017-04-23T07:07:29.754Z,7.61
2017-04-23T07:08:38.703Z,7.72
2017-04-23T07:09:47.744Z,7.8
2017-04-23T07:10:56.693Z,7.71
2017-04-23T07:12:06.215Z,7.8
2017-04-23T07:13:15.166Z,7.72
2017-04-23T07:14:24.225Z,7.75
2017-04-23T07:15:33.176Z,7.72
2017-04-23T07:16:42.123Z,7.72
2017-04-23T07:17:51.375Z,7.74
2017-04-23T07:19:00.331Z,7.75
2017-04-23T07:20:09.607Z,7.77
2017-04-23T07:21:18.559Z,7.74
2017-04-23T07:22:27.587Z,7.72
2017-04-23T07:23:36.837Z,7.72
2017-04-23T07:24:45.807Z,7.74
2017-04-23T07:25:54.768Z,7.79
2017-04-23T07:27:03.720Z,7.77
2017-04-23T07:28:12.670Z,7.8
2017-04-23T07:29:21.877Z,7.86
2017-04-23T07:30:30.826Z,7.77
2017-04-23T07:31:39.859Z,7.85
2017-04-23T07:32:48.812Z,7.87
2017-04-23T07:33:57.759Z,7.82
2017-04-23T07:35:07.012Z,7.85
2017-04-23T07:36:15.959Z,7.83
2017-04-23T07:37:24.911Z,7.86
2017-04-23T07:38:33.856Z,7.93
2017-04-23T07:39:42.814Z,7.93
2017-04-23T07:40:52.014Z,7.98
2017-04-23T07:42:00.975Z,8.01
2017-04-23T07:43:09.930Z,8.18
2017-04-23T07:44:18.977Z,8.16
2017-04-23T07:45:27.926Z,8.44
2017-04-23T07:46:37.137Z,8.5
2017-04-23T07:47:46.409Z,8.68
2017-04-23T07:48:55.377Z,8.65
2017-04-23T07:50:04.336Z,8.66
2017-04-23T07:51:13.459Z,8.76
2017-04-23T07:52:22.662Z,8.76
2017-04-23T07:53:31.614Z,8.83
2017-04-23T07:54:40.574Z,8.83
2017-04-23T07:55:49.621Z,8.94
2017-04-23T07:56:58.702Z,8.86
2017-04-23T07:58:07.909Z,8.87
2017-04-23T07:59:16.861Z,8.83
2017-04-23T08:00:25.825Z,8.84
2017-04-23T08:01:34.783Z,8.79
2017-04-23T08:02:43.821Z,8.71
2017-04-23T08:03:53.022Z,8.79
2017-04-23T08:05:01.978Z,8.68
2017-04-23T08:06:11.015Z,8.58
2017-04-23T08:07:19.963Z,8.43
2017-04-23T08:08:28.914Z,8.43
2017-04-23T08:09:38.204Z,8.38
2017-04-23T08:10:47.243Z,8.43
2017-04-23T08:11:56.289Z,8.55
2017-04-23T08:13:05.240Z,8.61
2017-04-23T08:14:14.279Z,8.61
2017-04-23T08:15:23.484Z,8.7
2017-04-23T08:16:32.434Z,8.91
2017-04-23T08:17:41.716Z,8.89
2017-04-23T08:18:50.663Z,8.99
2017-04-23T08:19:59.624Z,9.11
2017-04-23T08:21:08.913Z,9.2
2017-04-23T08:22:17.859Z,9.21
2017-04-23T08:23:26.809Z,9.32
2017-04-23T08:24:35.771Z,9.35
2017-04-23T08:25:44.726Z,9.39
2017-04-23T08:26:53.928Z,9.4
2017-04-23T08:28:02.878Z,9.47
2017-04-23T08:29:11.837Z,9.43
2017-04-23T08:30:20.790Z,9.48
2017-04-23T08:31:29.828Z,9.56
2017-04-23T08:32:39.030Z,9.51
2017-04-23T08:33:48.072Z,9.61
2017-04-23T08:34:57.032Z,9.66
2017-04-23T08:36:06.307Z,9.65
2017-04-23T08:37:15.259Z,9.66
2017-04-23T08:38:24.516Z,9.69
2017-04-23T08:39:33.468Z,9.72
2017-04-23T08:40:42.416Z,9.76
2017-04-23T08:41:51.365Z,9.76
2017-04-23T08:43:00.323Z,9.89
2017-04-23T08:44:09.519Z,9.97
2017-04-23T08:45:18.476Z,9.99
2017-04-23T08:46:27.439Z,10.08
2017-04-23T08:47:36.393Z,9.99
2017-04-23T08:48:45.342Z,10.05
2017-04-23T08:49:54.610Z,10.08
2017-04-23T08:51:03.567Z,9.97
2017-04-23T08:52:12.539Z,9.96
2017-04-23T08:53:21.583Z,10.07
2017-04-23T08:54:30.540Z,10.01
2017-04-23T08:55:39.830Z,9.94
2017-04-23T08:56:48.774Z,9.96
2017-04-23T08:57:57.728Z,9.81
2017-04-23T08:59:06.684Z,9.84
2017-04-23T09:00:15.727Z,9.69
2017-04-23T09:01:24.983Z,9.56
2017-04-23T09:02:33.933Z,9.54
2017-04-23T09:03:42.887Z,9.46
2017-04-23T09:04:51.844Z,9.5
2017-04-23T09:06:00.796Z,9.54
2017-04-23T09:07:10.045Z,9.58
2017-04-23T09:08:18.996Z,9.66
2017-04-23T09:09:27.943Z,9.64
2017-04-23T09:10:36.896Z,9.68
2017-04-23T09:11:45.858Z,9.83
2017-04-23T09:12:55.060Z,9.9
2017-04-23T09:14:04.020Z,10.04
2017-04-23T09:15:12.972Z,10.09
2017-04-23T09:16:21.923Z,10.27
2017-04-23T09:17:30.962Z,10.36
2017-04-23T09:18:40.171Z,10.56
2017-04-23T09:19:49.211Z,10.64
2017-04-23T09:20:58.253Z,10.7
2017-04-23T09:22:07.219Z,10.71
2017-04-23T09:23:16.169Z,10.74
2017-04-23T09:24:25.369Z,10.74
2017-04-23T09:25:34.319Z,10.76
2017-04-23T09:26:43.278Z,10.92
2017-04-23T09:27:52.227Z,11.02
2017-04-23T09:29:01.501Z,11.09
2017-04-23T09:30:11.033Z,11.04
2017-04-23T09:31:20.077Z,11.17
2017-04-23T09:32:29.029Z,11.09
2017-04-23T09:33:37.988Z,10.89
2017-04-23T09:34:46.944Z,10.55
2017-04-23T09:35:56.152Z,10.32
2017-04-23T09:37:05.433Z,9.96
2017-04-23T09:38:14.379Z,9.69
2017-04-23T09:39:23.333Z,9.46
2017-04-23T09:40:32.291Z,9.26
2017-04-23T09:41:41.544Z,9.11
2017-04-23T09:42:50.823Z,9.02
2017-04-23T09:43:59.793Z,8.95
2017-04-23T09:45:08.741Z,8.91
2017-04-23T09:46:17.691Z,8.92
2017-04-23T09:47:26.890Z,8.89
2017-04-23T09:48:35.943Z,9.02
2017-04-23T09:49:44.899Z,9.13
2017-04-23T09:50:53.849Z,9.13
2017-04-23T09:52:02.796Z,9.13
2017-04-23T09:53:11.999Z,9.1
2017-04-23T09:54:20.949Z,9.04
2017-04-23T09:55:29.900Z,9.08
2017-04-23T09:56:38.854Z,9.1
2017-04-23T09:57:47.802Z,9.08
2017-04-23T09:58:57.006Z,9.14
2017-04-23T10:00:05.963Z,9.24
2017-04-23T10:01:15.008Z,9.26
2017-04-23T10:02:23.959Z,9.39
2017-04-23T10:03:32.913Z,9.47
2017-04-23T10:04:42.453Z,9.54
2017-04-23T10:05:51.406Z,9.69
2017-04-23T10:07:00.680Z,9.75
2017-04-23T10:08:09.635Z,9.83
2017-04-23T10:09:19.315Z,9.84
2017-04-23T10:10:28.522Z,9.78
2017-04-23T10:11:37.472Z,9.84
2017-04-23T10:12:46.429Z,9.68
2017-04-23T10:13:55.377Z,9.65
2017-04-23T10:15:04.348Z,9.46
2017-04-23T10:16:13.866Z,9.17
2017-04-23T10:17:22.817Z,8.92
2017-04-23T10:18:31.774Z,8.81
2017-04-23T10:19:40.731Z,8.53
2017-04-23T10:20:49.690Z,8.28
2017-04-23T10:21:58.890Z,8.15
2017-04-23T10:23:07.842Z,8.15
2017-04-23T10:24:16.825Z,8.08
2017-04-23T10:25:25.786Z,8.08
2017-04-23T10:26:34.735Z,8.2
2017-04-23T10:27:44.257Z,8.26
2017-04-23T10:28:53.535Z,8.38
2017-04-23T10:30:02.489Z,8.5
2017-04-23T10:31:11.439Z,8.52
2017-04-23T10:32:20.394Z,8.65
2017-04-23T10:33:29.593Z,8.7
2017-04-23T10:34:38.543Z,8.68
2017-04-23T10:35:47.504Z,8.56
2017-04-23T10:36:56.456Z,8.61
2017-04-23T10:38:05.410Z,8.61
2017-04-23T10:39:14.609Z,8.55
2017-04-23T10:40:23.563Z,8.58
2017-04-23T10:41:32.519Z,8.62
2017-04-23T10:42:41.472Z,8.59
2017-04-23T10:43:50.422Z,8.55
2017-04-23T10:44:59.677Z,8.63
2017-04-23T10:46:08.633Z,8.81
2017-04-23T10:47:17.679Z,8.86
2017-04-23T10:48:26.632Z,8.87
2017-04-23T10:49:35.582Z,8.86
2017-04-23T10:50:44.797Z,9.11
2017-04-23T10:51:53.748Z,9.18
2017-04-23T10:53:02.696Z,9.26
2017-04-23T10:54:11.642Z,9.26
2017-04-23T10:55:20.596Z,9.29
2017-04-23T10:56:29.798Z,9.15
2017-04-23T10:57:38.746Z,9.2
2017-04-23T10:58:47.697Z,8.99
2017-04-23T10:59:56.681Z,8.91
2017-04-23T11:01:05.631Z,8.99
2017-04-23T11:02:14.887Z,9.01
2017-04-23T11:03:23.936Z,9.02
2017-04-23T11:04:33.202Z,9.02
2017-04-23T11:05:42.156Z,8.86
2017-04-23T11:06:51.114Z,8.91
2017-04-23T11:08:00.403Z,8.89
2017-04-23T11:09:09.349Z,8.89
2017-04-23T11:10:18.296Z,8.89
2017-04-23T11:11:27.257Z,8.86
2017-04-23T11:12:36.205Z,8.91
2017-04-23T11:13:45.409Z,8.83
2017-04-23T11:14:54.361Z,8.74
2017-04-23T11:16:03.317Z,8.63
2017-04-23T11:17:12.997Z,8.58
2017-04-23T11:18:21.946Z,8.4
2017-04-23T11:19:31.148Z,8.22
2017-04-23T11:20:40.098Z,8.1
2017-04-23T11:21:49.381Z,7.97
2017-04-23T11:22:58.335Z,8.05
2017-04-23T11:24:07.291Z,7.95
2017-04-23T11:25:16.492Z,8.02
2017-04-23T11:26:25.448Z,8.05
2017-04-23T11:27:34.397Z,8.18
2017-04-23T11:28:43.340Z,8.28
2017-04-23T11:29:52.290Z,8.3
2017-04-23T11:31:01.494Z,8.37
2017-04-23T11:32:10.458Z,8.29
2017-04-23T11:33:19.403Z,8.28
2017-04-23T11:34:28.362Z,8.33
2017-04-23T11:35:37.321Z,8.38
2017-04-23T11:36:46.613Z,8.47
2017-04-23T11:37:55.573Z,8.62
2017-04-23T11:39:04.519Z,8.7
2017-04-23T11:40:13.633Z,8.79
2017-04-23T11:41:22.584Z,8.92
2017-04-23T11:42:31.787Z,9.05
2017-04-23T11:43:40.774Z,9.15
2017-04-23T11:44:49.728Z,9.23
2017-04-23T11:45:58.682Z,9.23
2017-04-23T11:47:07.631Z,9.29
2017-04-23T11:48:16.832Z,9.31
2017-04-23T11:49:25.788Z,9.38
2017-04-23T11:50:34.740Z,9.29
2017-04-23T11:51:43.701Z,9.35
2017-04-23T11:52:52.651Z,9.31
2017-04-23T11:54:01.855Z,9.38
2017-04-23T11:55:10.806Z,9.39
2017-04-23T11:56:19.757Z,9.43
2017-04-23T11:57:28.707Z,9.47
2017-04-23T11:58:37.673Z,9.4
2017-04-23T11:59:47.199Z,9.35
2017-04-23T12:00:56.151Z,9.18
2017-04-23T12:02:05.100Z,9.15
2017-04-23T12:03:14.052Z,9.1
2017-04-23T12:04:23.086Z,9.1
2017-04-23T12:05:32.285Z,9.14
2017-04-23T12:06:41.273Z,9.24
2017-04-23T12:07:50.224Z,9.05
2017-04-23T12:08:59.178Z,9.01
2017-04-23T12:10:08.129Z,9.02
2017-04-23T12:11:17.335Z,9.04
2017-04-23T12:12:26.292Z,9.01
2017-04-23T12:13:35.243Z,9.01
2017-04-23T12:14:44.604Z,9.01
2017-04-23T12:15:53.549Z,8.94
2017-04-23T12:17:02.797Z,8.89
2017-04-23T12:18:12.091Z,8.92
2017-04-23T12:19:21.045Z,8.91
2017-04-23T12:20:30.001Z,8.94
2017-04-23T12:21:38.955Z,8.89
2017-04-23T12:22:48.149Z,8.96
2017-04-23T12:23:57.098Z,8.99
2017-04-23T12:25:06.055Z,9.11
2017-04-23T12:26:15.017Z,9.04
2017-04-23T12:27:23.967Z,9.1
2017-04-23T12:28:33.168Z,9.04
2017-04-23T12:29:42.662Z,8.98
2017-04-23T12:30:51.945Z,9.04
2017-04-23T12:32:00.897Z,8.92
2017-04-23T12:33:09.842Z,8.94
2017-04-23T12:34:19.072Z,8.87
2017-04-23T12:35:28.182Z,8.99
2017-04-23T12:36:37.181Z,9.1
2017-04-23T12:37:46.228Z,9.11
2017-04-23T12:38:55.266Z,9.14
2017-04-23T12:40:04.908Z,9.2
2017-04-23T12:41:14.035Z,9.32
2017-04-23T12:42:23.061Z,9.32
2017-04-23T12:43:32.110Z,9.42
2017-04-23T12:44:41.151Z,9.43
2017-04-23T12:45:50.456Z,9.35
2017-04-23T12:46:59.634Z,9.46
2017-04-23T12:48:08.806Z,9.42
2017-04-23T12:49:17.876Z,9.38
2017-04-23T12:50:27.120Z,9.48
2017-04-23T12:51:36.456Z,9.48
2017-04-23T12:52:45.610Z,9.47
2017-04-23T12:53:54.634Z,9.43
2017-04-23T12:55:03.769Z,9.42
2017-04-23T12:56:12.913Z,9.38
2017-04-23T12:57:22.303Z,9.48
2017-04-23T12:58:31.444Z,9.4
2017-04-23T12:59:40.476Z,9.48
2017-04-23T13:00:49.542Z,9.46
2017-04-23T13:01:58.608Z,9.39
2017-04-23T13:03:07.879Z,9.47
2017-04-23T13:04:16.933Z,9.47
2017-04-23T13:05:26.035Z,9.51
2017-04-23T13:06:35.095Z,9.64
2017-04-23T13:07:44.144Z,9.65
2017-04-23T13:08:53.475Z,9.64
2017-04-23T13:10:02.552Z,9.66
2017-04-23T13:11:11.731Z,9.68
2017-04-23T13:12:20.761Z,9.78
2017-04-23T13:13:29.820Z,9.89
2017-04-23T13:14:39.099Z,10.11
2017-04-23T13:15:48.181Z,10.25
2017-04-23T13:16:57.283Z,10.41
2017-04-23T13:18:06.407Z,10.45
2017-04-23T13:19:15.429Z,10.36
2017-04-23T13:20:24.813Z,10.27
2017-04-23T13:21:34.204Z,10.25
2017-04-23T13:22:43.500Z,10.32
2017-04-23T13:23:52.660Z,10.36
2017-04-23T13:25:01.735Z,10.41
2017-04-23T13:26:10.985Z,10.45
2017-04-23T13:27:20.229Z,10.38
2017-04-23T13:28:29.301Z,10.36
2017-04-23T13:29:38.357Z,10.34
2017-04-23T13:30:47.593Z,10.47
2017-04-23T13:31:56.865Z,10.4
2017-04-23T13:33:05.940Z,10.4
2017-04-23T13:34:15.118Z,10.3
2017-04-23T13:35:24.278Z,10.3
2017-04-23T13:36:33.378Z,10.29
2017-04-23T13:37:42.676Z,10.22
2017-04-23T13:38:52.191Z,10.3
2017-04-23T13:40:01.225Z,10.22
2017-04-23T13:41:10.242Z,10.36
2017-04-23T13:42:19.506Z,10.52
2017-04-23T13:43:28.784Z,10.47
2017-04-23T13:44:37.903Z,10.45
2017-04-23T13:45:47.010Z,10.44
2017-04-23T13:46:56.375Z,10.41
2017-04-23T13:48:05.480Z,10.23
2017-04-23T13:49:14.967Z,10.07
2017-04-23T13:50:24.020Z,9.83
2017-04-23T13:51:33.017Z,9.54
2017-04-23T13:52:42.141Z,9.21
2017-04-23T13:53:51.229Z,9.05
2017-04-23T13:55:00.690Z,8.89
2017-04-23T13:56:09.782Z,8.83
2017-04-23T13:57:19.025Z,8.81
2017-04-23T13:58:28.107Z,8.66
2017-04-23T13:59:37.250Z,8.62
2017-04-23T14:00:46.589Z,8.66
2017-04-23T14:01:55.579Z,8.58
2017-04-23T14:03:04.658Z,8.61
2017-04-23T14:04:14.051Z,8.66
2017-04-23T14:05:23.765Z,8.62
2017-04-23T14:06:33.105Z,8.61
2017-04-23T14:07:42.350Z,8.61
2017-04-23T14:08:51.788Z,8.58
2017-04-23T14:10:01.490Z,8.61
2017-04-23T14:11:11.223Z,8.59
2017-04-23T14:12:22.128Z,8.5
2017-04-23T14:13:31.601Z,8.47
2017-04-23T14:14:41.433Z,8.5
2017-04-23T14:15:50.762Z,8.43
2017-04-23T14:17:00.078Z,8.41
2017-04-23T14:18:10.081Z,8.53
2017-04-23T14:19:20.162Z,8.48
2017-04-23T14:20:29.342Z,8.55
2017-04-23T14:21:39.150Z,8.61
2017-04-23T14:22:48.200Z,8.65
2017-04-23T14:23:57.537Z,8.7
2017-04-23T14:25:06.692Z,8.83
2017-04-23T14:26:15.740Z,8.83
2017-04-23T14:27:24.729Z,8.8
2017-04-23T14:28:33.791Z,8.91
2017-04-23T14:29:43.087Z,8.87
2017-04-23T14:30:52.088Z,8.89
2017-04-23T14:32:01.102Z,8.86
2017-04-23T14:33:10.119Z,8.8
2017-04-23T14:34:19.110Z,8.77
2017-04-23T14:35:28.398Z,8.74
2017-04-23T14:36:37.387Z,8.65
2017-04-23T14:37:46.420Z,8.61
2017-04-23T14:38:55.436Z,8.58
2017-04-23T14:40:04.462Z,8.63
2017-04-23T14:41:13.721Z,8.53
2017-04-23T14:42:22.698Z,8.47
2017-04-23T14:43:31.673Z,8.41
2017-04-23T14:44:40.659Z,8.41
2017-04-23T14:45:49.651Z,8.43
2017-04-23T14:46:58.902Z,8.4
2017-04-23T14:48:08.199Z,8.43
2017-04-23T14:49:17.337Z,8.33
2017-04-23T14:50:26.341Z,8.29
2017-04-23T14:51:35.483Z,8.34
2017-04-23T14:52:44.707Z,8.34
2017-04-23T14:53:53.759Z,8.34
2017-04-23T14:55:03.171Z,8.29
2017-04-23T14:56:12.160Z,8.34
2017-04-23T14:57:21.135Z,8.38
2017-04-23T14:58:30.445Z,8.37
2017-04-23T14:59:39.553Z,8.45
2017-04-23T15:00:48.528Z,8.44
2017-04-23T15:01:57.493Z,8.5
2017-04-23T15:03:06.559Z,8.5
2017-04-23T15:04:15.762Z,8.44
2017-04-23T15:05:24.721Z,8.43
2017-04-23T15:06:33.681Z,8.44
2017-04-23T15:07:42.664Z,8.53
2017-04-23T15:08:51.971Z,8.5
2017-04-23T15:10:01.310Z,8.47
2017-04-23T15:11:10.293Z,8.47
2017-04-23T15:12:19.358Z,8.41
2017-04-23T15:13:28.344Z,8.41
2017-04-23T15:14:37.333Z,8.36
2017-04-23T15:15:46.596Z,8.44
2017-04-23T15:16:55.560Z,8.4
2017-04-23T15:18:04.603Z,8.4
2017-04-23T15:19:13.656Z,8.33
2017-04-23T15:20:22.729Z,8.3